»·PEaware :: N7935R KASE-KCOS

N7935R :: KASE-KCOS

FLIGHT INFORMATION

Flight Status: Arrived
Operator: Privately registered:
United States
More flights under this callsign
Pilot: Jim S. (5502)
Aircraft: BEECH AIRCRAFT SUPER KING AIR 350
(B350)
More flights by this aircraft type
Origin: KASE Aspen-Pitkin Co/Sardy
United States
Destination: KCOS City Of Colorado Springs Mun
United States
More flights between these airports :: More routes between these airports
Route: LINDZ8 DBL DIRECT
File this flight plan on PilotEdge
Remarks:
Altitude:
(Current/Filed)
21,000ft
Speed:
(Current/Filed)
260kts
Departed: 19-Dec-17 08:51 AM
Arrived: 19-Dec-17 09:33 AM
Distance/Time
Traveled:
105nm/0:42
Distance/Time
To Go:
Arrived

Flight Plot

Page will automatically refresh every two minutes.

Flight plan parsing failed; only flown route is shown


Map Options




Map Legend


Flown Route
Filed Route
Departure Airport
Arrival Airport
Navaid (VOR, NDB)
Fix

Horizontal Profiles

Position Reports

Time Latitude Longitude Heading Altitude Ground
Speed
19-Dec-17 08:47 39.220898 -106.866006 69 7823ft 0kts
19-Dec-17 08:48 39.220898 -106.866003 69 7823ft 0kts
19-Dec-17 08:49 39.220899 -106.866000 69 7823ft 0kts
19-Dec-17 08:50 39.220900 -106.865997 69 7823ft 0kts
19-Dec-17 08:51 39.220901 -106.865994 69 7823ft 0kts
19-Dec-17 08:52 39.219267 -106.865789 195 7823ft 11kts
19-Dec-17 08:53 39.214996 -106.864315 211 7823ft 0kts
19-Dec-17 08:54 39.214889 -106.864430 241 7823ft 0kts
19-Dec-17 08:55 39.214888 -106.864433 241 7823ft 0kts
19-Dec-17 08:56 39.214886 -106.864436 241 7823ft 0kts
19-Dec-17 08:57 39.222744 -106.868482 340 7899ft 103kts
19-Dec-17 08:58 39.252487 -106.874994 343 9851ft 150kts
19-Dec-17 08:59 39.276299 -106.928733 290 12935ft 147kts
19-Dec-17 09:00 39.294769 -106.982924 290 13855ft 203kts
19-Dec-17 09:01 39.312912 -107.037270 290 14554ft 183kts
19-Dec-17 09:02 39.335868 -107.094035 310 17938ft 141kts
19-Dec-17 09:03 39.363002 -107.124797 312 19883ft 178kts
19-Dec-17 09:04 39.418799 -107.145534 25 19999ft 275kts
19-Dec-17 09:05 39.443574 -107.058207 92 21018ft 272kts
19-Dec-17 09:06 39.441017 -106.957578 92 21000ft 282kts
19-Dec-17 09:07 39.429754 -106.859490 111 21002ft 277kts
19-Dec-17 09:08 39.403132 -106.764000 111 21000ft 284kts
19-Dec-17 09:09 39.376182 -106.667382 111 21000ft 286kts
19-Dec-17 09:10 39.348912 -106.569925 111 21000ft 290kts
19-Dec-17 09:11 39.321082 -106.470849 111 21001ft 300kts
19-Dec-17 09:12 39.292226 -106.368481 111 20999ft 302kts
19-Dec-17 09:13 39.263611 -106.267389 111 20999ft 299kts
19-Dec-17 09:14 39.235062 -106.166891 111 20999ft 298kts
19-Dec-17 09:15 39.206372 -106.066296 111 21000ft 298kts
19-Dec-17 09:16 39.177704 -105.966178 111 21000ft 298kts
19-Dec-17 09:17 39.148841 -105.865769 111 21000ft 298kts
19-Dec-17 09:18 39.120014 -105.765872 112 20997ft 297kts
19-Dec-17 09:19 39.091113 -105.666082 112 21000ft 298kts
19-Dec-17 09:20 39.064795 -105.566651 97 20527ft 285kts
19-Dec-17 09:21 39.064508 -105.462407 88 18069ft 297kts
19-Dec-17 09:22 39.066821 -105.360331 87 16006ft 251kts
19-Dec-17 09:23 39.068417 -105.290042 87 15779ft 160kts
19-Dec-17 09:24 39.070252 -105.212098 87 14394ft 263kts
19-Dec-17 09:25 39.072528 -105.119360 87 12775ft 231kts
19-Dec-17 09:26 39.074268 -105.048146 87 12765ft 174kts
19-Dec-17 09:27 39.076100 -104.974908 87 11993ft 231kts
19-Dec-17 09:28 39.078001 -104.900620 87 10786ft 209kts
19-Dec-17 09:29 39.079979 -104.825088 87 10813ft 208kts
19-Dec-17 09:30 39.081873 -104.753707 87 9786ft 189kts
19-Dec-17 09:31 39.072547 -104.697182 146 8760ft 128kts
19-Dec-17 09:32 39.037946 -104.675891 187 8800ft 164kts
19-Dec-17 09:33 38.993365 -104.688346 176 8775ft 160kts
19-Dec-17 09:34 38.949299 -104.686157 179 8767ft 155kts
19-Dec-17 09:35 38.903741 -104.685722 179 7952ft 171kts
19-Dec-17 09:36 38.862192 -104.685717 179 7104ft 138kts
19-Dec-17 09:37 38.825716 -104.685710 178 6366ft 107kts
19-Dec-17 09:38 38.804495 -104.685750 180 6187ft 49kts
19-Dec-17 09:39 38.802676 -104.688722 269 6187ft 11kts

Navigation Log

Ident Type
Flight plan parsing failed, navigation log unavailable